sensor_id;sensor_type;location;lat;lon;timestamp;P1;durP1;ratioP1;P2;durP2;ratioP2
76801;SDS011;66403;50.832;10.950;2023-05-10T00:01:33;3.75;;;2.55;;
76801;SDS011;66403;50.832;10.950;2023-05-10T00:06:34;3.55;;;1.95;;
76801;SDS011;66403;50.832;10.950;2023-05-10T00:11:34;3.33;;;2.00;;
76801;SDS011;66403;50.832;10.950;2023-05-10T00:16:35;4.07;;;2.28;;
76801;SDS011;66403;50.832;10.950;2023-05-10T00:21:35;4.20;;;1.85;;
76801;SDS011;66403;50.832;10.950;2023-05-10T00:26:36;3.20;;;2.15;;
76801;SDS011;66403;50.832;10.950;2023-05-10T00:31:37;2.80;;;2.10;;
76801;SDS011;66403;50.832;10.950;2023-05-10T00:36:37;2.17;;;1.80;;
76801;SDS011;66403;50.832;10.950;2023-05-10T00:41:38;2.05;;;1.60;;
76801;SDS011;66403;50.832;10.950;2023-05-10T00:46:40;2.17;;;1.92;;
76801;SDS011;66403;50.832;10.950;2023-05-10T00:51:41;3.17;;;1.88;;
76801;SDS011;66403;50.832;10.950;2023-05-10T00:56:43;3.65;;;2.50;;
76801;SDS011;66403;50.832;10.950;2023-05-10T01:01:48;2.17;;;1.98;;
76801;SDS011;66403;50.832;10.950;2023-05-10T01:06:49;2.85;;;2.10;;
76801;SDS011;66403;50.832;10.950;2023-05-10T01:11:49;3.83;;;1.80;;
76801;SDS011;66403;50.832;10.950;2023-05-10T01:16:50;4.07;;;2.10;;
76801;SDS011;66403;50.832;10.950;2023-05-10T01:32:16;3.35;;;1.98;;
76801;SDS011;66403;50.832;10.950;2023-05-10T01:37:35;4.70;;;3.00;;
76801;SDS011;66403;50.832;10.950;2023-05-10T01:42:53;2.85;;;2.08;;
76801;SDS011;66403;50.832;10.950;2023-05-10T01:48:10;2.55;;;1.92;;
76801;SDS011;66403;50.832;10.950;2023-05-10T01:53:12;5.88;;;2.20;;
76801;SDS011;66403;50.832;10.950;2023-05-10T01:58:13;2.50;;;1.98;;
76801;SDS011;66403;50.832;10.950;2023-05-10T02:03:27;2.95;;;2.22;;
76801;SDS011;66403;50.832;10.950;2023-05-10T02:08:28;2.97;;;2.67;;
76801;SDS011;66403;50.832;10.950;2023-05-10T02:13:29;1.90;;;1.48;;
76801;SDS011;66403;50.832;10.950;2023-05-10T02:18:31;3.80;;;2.35;;
76801;SDS011;66403;50.832;10.950;2023-05-10T02:23:35;4.25;;;2.50;;
76801;SDS011;66403;50.832;10.950;2023-05-10T02:28:36;4.38;;;2.70;;
76801;SDS011;66403;50.832;10.950;2023-05-10T02:33:40;3.15;;;2.53;;
76801;SDS011;66403;50.832;10.950;2023-05-10T02:38:41;5.60;;;2.70;;
76801;SDS011;66403;50.832;10.950;2023-05-10T02:43:41;3.95;;;3.05;;
76801;SDS011;66403;50.832;10.950;2023-05-10T02:48:42;3.35;;;2.70;;
76801;SDS011;66403;50.832;10.950;2023-05-10T02:53:43;3.10;;;2.40;;
76801;SDS011;66403;50.832;10.950;2023-05-10T02:58:44;4.07;;;2.67;;
76801;SDS011;66403;50.832;10.950;2023-05-10T03:03:45;5.40;;;3.30;;
76801;SDS011;66403;50.832;10.950;2023-05-10T03:08:45;4.57;;;3.38;;
76801;SDS011;66403;50.832;10.950;2023-05-10T03:19:26;4.75;;;3.75;;
76801;SDS011;66403;50.832;10.950;2023-05-10T03:24:30;8.75;;;5.10;;
76801;SDS011;66403;50.832;10.950;2023-05-10T03:29:33;5.68;;;3.83;;
76801;SDS011;66403;50.832;10.950;2023-05-10T03:34:34;5.05;;;3.15;;
76801;SDS011;66403;50.832;10.950;2023-05-10T03:39:41;6.25;;;4.28;;
76801;SDS011;66403;50.832;10.950;2023-05-10T03:44:43;7.55;;;4.00;;
76801;SDS011;66403;50.832;10.950;2023-05-10T03:49:44;6.05;;;4.03;;
76801;SDS011;66403;50.832;10.950;2023-05-10T03:54:46;6.90;;;3.58;;
76801;SDS011;66403;50.832;10.950;2023-05-10T03:59:46;5.57;;;3.53;;
76801;SDS011;66403;50.832;10.950;2023-05-10T04:04:47;6.72;;;3.85;;
76801;SDS011;66403;50.832;10.950;2023-05-10T04:09:48;5.05;;;3.70;;
76801;SDS011;66403;50.832;10.950;2023-05-10T04:14:48;7.25;;;3.67;;
76801;SDS011;66403;50.832;10.950;2023-05-10T04:19:49;7.00;;;3.42;;
76801;SDS011;66403;50.832;10.950;2023-05-10T04:24:49;6.53;;;3.78;;
76801;SDS011;66403;50.832;10.950;2023-05-10T04:29:50;6.93;;;5.07;;
76801;SDS011;66403;50.832;10.950;2023-05-10T04:34:50;6.25;;;4.07;;
76801;SDS011;66403;50.832;10.950;2023-05-10T04:39:52;10.25;;;6.82;;
76801;SDS011;66403;50.832;10.950;2023-05-10T04:44:52;8.45;;;5.85;;
76801;SDS011;66403;50.832;10.950;2023-05-10T04:49:53;8.20;;;5.32;;
76801;SDS011;66403;50.832;10.950;2023-05-10T04:54:53;7.15;;;4.53;;
76801;SDS011;66403;50.832;10.950;2023-05-10T04:59:54;3.90;;;3.20;;
76801;SDS011;66403;50.832;10.950;2023-05-10T05:04:55;4.70;;;3.65;;
76801;SDS011;66403;50.832;10.950;2023-05-10T05:09:56;7.13;;;5.07;;
76801;SDS011;66403;50.832;10.950;2023-05-10T05:14:56;5.07;;;3.45;;
76801;SDS011;66403;50.832;10.950;2023-05-10T05:19:56;6.35;;;3.33;;
76801;SDS011;66403;50.832;10.950;2023-05-10T05:24:57;3.78;;;2.80;;
76801;SDS011;66403;50.832;10.950;2023-05-10T05:30:02;4.78;;;2.75;;
76801;SDS011;66403;50.832;10.950;2023-05-10T05:35:03;3.65;;;2.80;;
76801;SDS011;66403;50.832;10.950;2023-05-10T05:40:04;2.78;;;1.90;;
76801;SDS011;66403;50.832;10.950;2023-05-10T05:45:05;1.90;;;1.50;;
76801;SDS011;66403;50.832;10.950;2023-05-10T05:50:06;2.70;;;2.08;;
76801;SDS011;66403;50.832;10.950;2023-05-10T05:55:07;3.17;;;2.47;;
76801;SDS011;66403;50.832;10.950;2023-05-10T06:00:07;3.85;;;1.40;;
76801;SDS011;66403;50.832;10.950;2023-05-10T06:05:14;1.58;;;1.23;;
76801;SDS011;66403;50.832;10.950;2023-05-10T06:10:15;1.55;;;1.10;;
76801;SDS011;66403;50.832;10.950;2023-05-10T06:15:15;2.15;;;1.40;;
76801;SDS011;66403;50.832;10.950;2023-05-10T06:20:16;1.77;;;1.30;;
76801;SDS011;66403;50.832;10.950;2023-05-10T06:25:17;2.60;;;1.88;;
76801;SDS011;66403;50.832;10.950;2023-05-10T06:30:18;1.23;;;1.10;;
76801;SDS011;66403;50.832;10.950;2023-05-10T06:35:18;1.30;;;1.20;;
76801;SDS011;66403;50.832;10.950;2023-05-10T06:40:19;1.50;;;1.10;;
76801;SDS011;66403;50.832;10.950;2023-05-10T06:45:19;1.40;;;1.20;;
76801;SDS011;66403;50.832;10.950;2023-05-10T06:50:20;1.52;;;1.23;;
76801;SDS011;66403;50.832;10.950;2023-05-10T06:55:21;1.00;;;0.90;;
76801;SDS011;66403;50.832;10.950;2023-05-10T07:00:21;6.68;;;3.65;;
76801;SDS011;66403;50.832;10.950;2023-05-10T07:05:22;11.68;;;8.07;;
76801;SDS011;66403;50.832;10.950;2023-05-10T07:10:22;1.08;;;0.90;;
76801;SDS011;66403;50.832;10.950;2023-05-10T07:15:23;0.47;;;0.40;;
76801;SDS011;66403;50.832;10.950;2023-05-10T07:20:23;5.83;;;3.43;;
76801;SDS011;66403;50.832;10.950;2023-05-10T07:25:24;0.20;;;0.20;;
76801;SDS011;66403;50.832;10.950;2023-05-10T07:30:24;0.20;;;0.17;;
76801;SDS011;66403;50.832;10.950;2023-05-10T07:35:25;0.10;;;0.10;;
76801;SDS011;66403;50.832;10.950;2023-05-10T07:40:25;0.27;;;0.20;;
76801;SDS011;66403;50.832;10.950;2023-05-10T07:45:26;0.30;;;0.20;;
76801;SDS011;66403;50.832;10.950;2023-05-10T07:50:26;3.47;;;1.75;;
76801;SDS011;66403;50.832;10.950;2023-05-10T07:55:26;0.28;;;0.28;;
76801;SDS011;66403;50.832;10.950;2023-05-10T08:00:27;0.13;;;0.10;;
76801;SDS011;66403;50.832;10.950;2023-05-10T08:05:27;0.28;;;0.17;;
76801;SDS011;66403;50.832;10.950;2023-05-10T08:10:28;0.90;;;0.13;;
76801;SDS011;66403;50.832;10.950;2023-05-10T08:15:28;0.17;;;0.10;;
76801;SDS011;66403;50.832;10.950;2023-05-10T08:20:29;0.10;;;0.10;;
76801;SDS011;66403;50.832;10.950;2023-05-10T08:25:29;1.10;;;0.30;;
76801;SDS011;66403;50.832;10.950;2023-05-10T08:30:29;0.20;;;0.20;;
76801;SDS011;66403;50.832;10.950;2023-05-10T08:35:30;0.20;;;0.20;;
76801;SDS011;66403;50.832;10.950;2023-05-10T08:40:31;0.20;;;0.20;;
76801;SDS011;66403;50.832;10.950;2023-05-10T08:45:32;0.20;;;0.20;;
76801;SDS011;66403;50.832;10.950;2023-05-10T08:50:35;3.35;;;1.85;;
76801;SDS011;66403;50.832;10.950;2023-05-10T08:55:36;0.63;;;0.10;;
76801;SDS011;66403;50.832;10.950;2023-05-10T09:00:38;0.47;;;0.20;;
76801;SDS011;66403;50.832;10.950;2023-05-10T09:05:38;0.20;;;0.15;;
76801;SDS011;66403;50.832;10.950;2023-05-10T09:10:39;0.33;;;0.20;;
76801;SDS011;66403;50.832;10.950;2023-05-10T09:15:40;0.15;;;0.15;;
76801;SDS011;66403;50.832;10.950;2023-05-10T09:20:40;0.00;;;0.00;;
76801;SDS011;66403;50.832;10.950;2023-05-10T09:25:41;1.20;;;0.73;;
76801;SDS011;66403;50.832;10.950;2023-05-10T09:30:41;0.30;;;0.20;;
76801;SDS011;66403;50.832;10.950;2023-05-10T09:35:42;1.73;;;0.93;;
76801;SDS011;66403;50.832;10.950;2023-05-10T09:40:50;1.35;;;0.50;;
76801;SDS011;66403;50.832;10.950;2023-05-10T09:45:54;0.30;;;0.20;;
76801;SDS011;66403;50.832;10.950;2023-05-10T09:50:57;0.60;;;0.47;;
76801;SDS011;66403;50.832;10.950;2023-05-10T09:55:58;2.78;;;1.60;;
76801;SDS011;66403;50.832;10.950;2023-05-10T10:00:58;0.60;;;0.50;;
76801;SDS011;66403;50.832;10.950;2023-05-10T10:05:59;5.53;;;3.40;;
76801;SDS011;66403;50.832;10.950;2023-05-10T10:10:59;5.23;;;2.93;;
76801;SDS011;66403;50.832;10.950;2023-05-10T10:16:00;2.80;;;0.90;;
76801;SDS011;66403;50.832;10.950;2023-05-10T10:21:00;1.42;;;0.93;;
76801;SDS011;66403;50.832;10.950;2023-05-10T10:26:02;0.50;;;0.38;;
76801;SDS011;66403;50.832;10.950;2023-05-10T10:31:12;1.92;;;0.50;;
76801;SDS011;66403;50.832;10.950;2023-05-10T10:36:17;0.40;;;0.40;;
76801;SDS011;66403;50.832;10.950;2023-05-10T10:46:58;3.13;;;0.50;;
76801;SDS011;66403;50.832;10.950;2023-05-10T10:52:36;1.05;;;0.50;;
76801;SDS011;66403;50.832;10.950;2023-05-10T11:07:51;0.93;;;0.50;;
76801;SDS011;66403;50.832;10.950;2023-05-10T11:12:59;2.17;;;0.73;;
76801;SDS011;66403;50.832;10.950;2023-05-10T11:18:20;3.42;;;2.38;;
76801;SDS011;66403;50.832;10.950;2023-05-10T11:23:21;1.02;;;0.50;;
76801;SDS011;66403;50.832;10.950;2023-05-10T11:28:22;1.98;;;1.63;;
76801;SDS011;66403;50.832;10.950;2023-05-10T11:33:23;2.20;;;1.60;;
76801;SDS011;66403;50.832;10.950;2023-05-10T11:38:23;1.33;;;0.90;;
76801;SDS011;66403;50.832;10.950;2023-05-10T11:43:24;0.50;;;0.47;;
76801;SDS011;66403;50.832;10.950;2023-05-10T11:48:29;2.47;;;0.80;;
76801;SDS011;66403;50.832;10.950;2023-05-10T11:53:30;0.60;;;0.43;;
76801;SDS011;66403;50.832;10.950;2023-05-10T11:58:32;0.88;;;0.60;;
76801;SDS011;66403;50.832;10.950;2023-05-10T12:03:32;9.10;;;4.78;;
76801;SDS011;66403;50.832;10.950;2023-05-10T12:08:33;2.20;;;0.90;;
76801;SDS011;66403;50.832;10.950;2023-05-10T12:13:40;1.40;;;1.20;;
76801;SDS011;66403;50.832;10.950;2023-05-10T12:18:41;1.13;;;1.02;;
76801;SDS011;66403;50.832;10.950;2023-05-10T12:23:42;1.63;;;1.35;;
76801;SDS011;66403;50.832;10.950;2023-05-10T12:28:45;1.70;;;0.98;;
76801;SDS011;66403;50.832;10.950;2023-05-10T12:33:46;0.80;;;0.80;;
76801;SDS011;66403;50.832;10.950;2023-05-10T12:38:47;3.80;;;1.13;;
76801;SDS011;66403;50.832;10.950;2023-05-10T12:43:47;2.25;;;1.05;;
76801;SDS011;66403;50.832;10.950;2023-05-10T12:48:48;2.70;;;2.45;;
76801;SDS011;66403;50.832;10.950;2023-05-10T12:53:54;1.48;;;0.85;;
76801;SDS011;66403;50.832;10.950;2023-05-10T12:58:55;4.63;;;3.20;;
76801;SDS011;66403;50.832;10.950;2023-05-10T13:03:55;1.80;;;1.20;;
76801;SDS011;66403;50.832;10.950;2023-05-10T13:08:56;1.38;;;1.00;;
76801;SDS011;66403;50.832;10.950;2023-05-10T13:13:57;5.75;;;4.38;;
76801;SDS011;66403;50.832;10.950;2023-05-10T13:18:58;0.90;;;0.80;;
76801;SDS011;66403;50.832;10.950;2023-05-10T13:23:58;0.70;;;0.50;;
76801;SDS011;66403;50.832;10.950;2023-05-10T13:29:00;2.13;;;0.80;;
76801;SDS011;66403;50.832;10.950;2023-05-10T13:34:00;0.60;;;0.60;;
76801;SDS011;66403;50.832;10.950;2023-05-10T13:39:00;0.50;;;0.50;;
76801;SDS011;66403;50.832;10.950;2023-05-10T13:44:03;1.63;;;0.70;;
76801;SDS011;66403;50.832;10.950;2023-05-10T13:49:03;1.00;;;0.90;;
76801;SDS011;66403;50.832;10.950;2023-05-10T13:54:04;0.63;;;0.47;;
76801;SDS011;66403;50.832;10.950;2023-05-10T13:59:04;0.85;;;0.80;;
76801;SDS011;66403;50.832;10.950;2023-05-10T14:04:05;0.93;;;0.60;;
76801;SDS011;66403;50.832;10.950;2023-05-10T14:09:07;1.05;;;0.90;;
76801;SDS011;66403;50.832;10.950;2023-05-10T14:14:07;0.60;;;0.60;;
76801;SDS011;66403;50.832;10.950;2023-05-10T14:19:08;0.70;;;0.65;;
76801;SDS011;66403;50.832;10.950;2023-05-10T14:24:08;0.60;;;0.60;;
76801;SDS011;66403;50.832;10.950;2023-05-10T14:29:09;1.15;;;0.70;;
76801;SDS011;66403;50.832;10.950;2023-05-10T14:34:09;0.82;;;0.70;;
76801;SDS011;66403;50.832;10.950;2023-05-10T14:39:10;1.23;;;1.03;;
76801;SDS011;66403;50.832;10.950;2023-05-10T14:44:12;1.17;;;0.60;;
76801;SDS011;66403;50.832;10.950;2023-05-10T14:49:13;1.67;;;0.82;;
76801;SDS011;66403;50.832;10.950;2023-05-10T14:54:13;1.43;;;0.70;;
76801;SDS011;66403;50.832;10.950;2023-05-10T14:59:13;1.10;;;0.50;;
76801;SDS011;66403;50.832;10.950;2023-05-10T15:04:14;1.70;;;1.27;;
76801;SDS011;66403;50.832;10.950;2023-05-10T15:09:16;1.10;;;0.82;;
76801;SDS011;66403;50.832;10.950;2023-05-10T15:14:16;1.00;;;0.80;;
76801;SDS011;66403;50.832;10.950;2023-05-10T15:19:17;1.20;;;0.70;;
76801;SDS011;66403;50.832;10.950;2023-05-10T15:24:17;1.23;;;0.87;;
76801;SDS011;66403;50.832;10.950;2023-05-10T15:29:18;1.40;;;0.85;;
76801;SDS011;66403;50.832;10.950;2023-05-10T15:34:19;0.90;;;0.80;;
76801;SDS011;66403;50.832;10.950;2023-05-10T15:39:20;1.73;;;1.63;;
76801;SDS011;66403;50.832;10.950;2023-05-10T15:44:20;1.70;;;1.30;;
76801;SDS011;66403;50.832;10.950;2023-05-10T15:49:21;1.85;;;1.63;;
76801;SDS011;66403;50.832;10.950;2023-05-10T15:54:22;2.37;;;1.70;;
76801;SDS011;66403;50.832;10.950;2023-05-10T15:59:22;3.30;;;1.30;;
76801;SDS011;66403;50.832;10.950;2023-05-10T16:04:23;3.60;;;2.87;;
76801;SDS011;66403;50.832;10.950;2023-05-10T16:09:23;2.37;;;1.20;;
76801;SDS011;66403;50.832;10.950;2023-05-10T16:14:23;2.03;;;1.40;;
76801;SDS011;66403;50.832;10.950;2023-05-10T16:19:24;1.53;;;1.20;;
76801;SDS011;66403;50.832;10.950;2023-05-10T16:24:24;1.20;;;0.90;;
76801;SDS011;66403;50.832;10.950;2023-05-10T16:29:25;3.15;;;1.10;;
76801;SDS011;66403;50.832;10.950;2023-05-10T16:34:25;0.82;;;0.75;;
76801;SDS011;66403;50.832;10.950;2023-05-10T16:39:26;1.35;;;1.00;;
76801;SDS011;66403;50.832;10.950;2023-05-10T16:44:26;18.75;;;1.52;;
76801;SDS011;66403;50.832;10.950;2023-05-10T16:49:27;1.63;;;0.93;;
76801;SDS011;66403;50.832;10.950;2023-05-10T16:54:28;2.42;;;1.20;;
76801;SDS011;66403;50.832;10.950;2023-05-10T16:59:28;3.67;;;1.75;;
76801;SDS011;66403;50.832;10.950;2023-05-10T17:04:29;5.43;;;2.08;;
76801;SDS011;66403;50.832;10.950;2023-05-10T17:09:29;2.70;;;1.73;;
76801;SDS011;66403;50.832;10.950;2023-05-10T17:14:30;2.85;;;2.25;;
76801;SDS011;66403;50.832;10.950;2023-05-10T17:19:30;2.90;;;1.75;;
76801;SDS011;66403;50.832;10.950;2023-05-10T17:24:31;2.63;;;1.63;;
76801;SDS011;66403;50.832;10.950;2023-05-10T17:29:32;5.43;;;2.47;;
76801;SDS011;66403;50.832;10.950;2023-05-10T17:34:32;1.70;;;1.30;;
76801;SDS011;66403;50.832;10.950;2023-05-10T17:39:33;1.67;;;0.90;;
76801;SDS011;66403;50.832;10.950;2023-05-10T17:44:33;3.08;;;1.10;;
76801;SDS011;66403;50.832;10.950;2023-05-10T17:49:33;1.55;;;0.85;;
76801;SDS011;66403;50.832;10.950;2023-05-10T17:54:34;1.42;;;1.00;;
76801;SDS011;66403;50.832;10.950;2023-05-10T17:59:34;1.20;;;1.05;;
76801;SDS011;66403;50.832;10.950;2023-05-10T18:04:35;3.13;;;1.10;;
76801;SDS011;66403;50.832;10.950;2023-05-10T18:09:36;3.60;;;1.85;;
76801;SDS011;66403;50.832;10.950;2023-05-10T18:14:36;2.15;;;0.85;;
76801;SDS011;66403;50.832;10.950;2023-05-10T18:19:36;1.73;;;1.20;;
76801;SDS011;66403;50.832;10.950;2023-05-10T18:24:37;1.20;;;1.10;;
76801;SDS011;66403;50.832;10.950;2023-05-10T18:29:37;3.03;;;1.25;;
76801;SDS011;66403;50.832;10.950;2023-05-10T18:34:38;2.38;;;1.88;;
76801;SDS011;66403;50.832;10.950;2023-05-10T18:39:38;2.28;;;1.45;;
76801;SDS011;66403;50.832;10.950;2023-05-10T18:44:39;1.58;;;1.10;;
76801;SDS011;66403;50.832;10.950;2023-05-10T18:49:39;1.52;;;1.13;;
76801;SDS011;66403;50.832;10.950;2023-05-10T18:54:40;1.55;;;1.25;;
76801;SDS011;66403;50.832;10.950;2023-05-10T18:59:40;2.53;;;1.40;;
76801;SDS011;66403;50.832;10.950;2023-05-10T19:04:42;2.70;;;1.73;;
76801;SDS011;66403;50.832;10.950;2023-05-10T19:09:42;2.22;;;1.38;;
76801;SDS011;66403;50.832;10.950;2023-05-10T19:14:43;2.03;;;1.15;;
76801;SDS011;66403;50.832;10.950;2023-05-10T19:19:43;2.13;;;1.48;;
76801;SDS011;66403;50.832;10.950;2023-05-10T19:24:44;3.72;;;2.00;;
76801;SDS011;66403;50.832;10.950;2023-05-10T19:29:45;3.90;;;2.53;;
76801;SDS011;66403;50.832;10.950;2023-05-10T19:34:45;2.42;;;1.90;;
76801;SDS011;66403;50.832;10.950;2023-05-10T19:39:46;2.65;;;1.40;;
76801;SDS011;66403;50.832;10.950;2023-05-10T19:44:46;2.97;;;1.80;;
76801;SDS011;66403;50.832;10.950;2023-05-10T19:49:47;2.25;;;1.40;;
76801;SDS011;66403;50.832;10.950;2023-05-10T19:54:47;4.47;;;1.95;;
76801;SDS011;66403;50.832;10.950;2023-05-10T19:59:47;2.20;;;1.23;;
76801;SDS011;66403;50.832;10.950;2023-05-10T20:04:48;2.42;;;1.30;;
76801;SDS011;66403;50.832;10.950;2023-05-10T20:09:49;2.97;;;1.75;;
76801;SDS011;66403;50.832;10.950;2023-05-10T20:14:49;2.17;;;1.50;;
76801;SDS011;66403;50.832;10.950;2023-05-10T20:19:50;12.65;;;1.92;;
76801;SDS011;66403;50.832;10.950;2023-05-10T20:24:50;2.00;;;1.58;;
76801;SDS011;66403;50.832;10.950;2023-05-10T20:29:51;2.33;;;1.70;;
76801;SDS011;66403;50.832;10.950;2023-05-10T20:34:52;3.53;;;2.20;;
76801;SDS011;66403;50.832;10.950;2023-05-10T20:39:52;2.03;;;1.70;;
76801;SDS011;66403;50.832;10.950;2023-05-10T20:44:53;2.20;;;1.42;;
76801;SDS011;66403;50.832;10.950;2023-05-10T20:49:54;3.00;;;1.50;;
76801;SDS011;66403;50.832;10.950;2023-05-10T20:54:54;3.15;;;1.60;;
76801;SDS011;66403;50.832;10.950;2023-05-10T20:59:54;2.05;;;1.83;;
76801;SDS011;66403;50.832;10.950;2023-05-10T21:04:56;3.55;;;2.13;;
76801;SDS011;66403;50.832;10.950;2023-05-10T21:09:56;1.77;;;1.17;;
76801;SDS011;66403;50.832;10.950;2023-05-10T21:14:57;2.22;;;1.50;;
76801;SDS011;66403;50.832;10.950;2023-05-10T21:19:57;5.53;;;2.35;;
76801;SDS011;66403;50.832;10.950;2023-05-10T21:24:58;5.32;;;3.15;;
76801;SDS011;66403;50.832;10.950;2023-05-10T21:29:58;3.83;;;2.63;;
76801;SDS011;66403;50.832;10.950;2023-05-10T21:34:59;4.53;;;2.55;;
76801;SDS011;66403;50.832;10.950;2023-05-10T21:39:59;7.00;;;2.08;;
76801;SDS011;66403;50.832;10.950;2023-05-10T21:45:00;3.72;;;2.08;;
76801;SDS011;66403;50.832;10.950;2023-05-10T21:50:00;3.67;;;2.42;;
76801;SDS011;66403;50.832;10.950;2023-05-10T21:55:01;5.00;;;2.20;;
76801;SDS011;66403;50.832;10.950;2023-05-10T22:00:02;4.13;;;2.60;;
76801;SDS011;66403;50.832;10.950;2023-05-10T22:05:04;2.75;;;1.70;;
76801;SDS011;66403;50.832;10.950;2023-05-10T22:10:06;9.70;;;2.25;;
76801;SDS011;66403;50.832;10.950;2023-05-10T22:15:07;2.78;;;1.70;;
76801;SDS011;66403;50.832;10.950;2023-05-10T22:20:08;2.80;;;1.52;;
76801;SDS011;66403;50.832;10.950;2023-05-10T22:25:08;2.33;;;2.00;;
76801;SDS011;66403;50.832;10.950;2023-05-10T22:30:09;3.35;;;2.13;;
76801;SDS011;66403;50.832;10.950;2023-05-10T22:35:09;4.65;;;1.98;;
76801;SDS011;66403;50.832;10.950;2023-05-10T22:40:10;3.05;;;2.10;;
76801;SDS011;66403;50.832;10.950;2023-05-10T22:45:13;3.72;;;2.10;;
76801;SDS011;66403;50.832;10.950;2023-05-10T22:50:14;3.85;;;2.28;;
76801;SDS011;66403;50.832;10.950;2023-05-10T22:55:15;3.10;;;2.15;;
76801;SDS011;66403;50.832;10.950;2023-05-10T23:00:15;4.85;;;2.42;;
76801;SDS011;66403;50.832;10.950;2023-05-10T23:05:16;3.92;;;2.55;;
76801;SDS011;66403;50.832;10.950;2023-05-10T23:10:17;3.20;;;1.90;;
76801;SDS011;66403;50.832;10.950;2023-05-10T23:15:19;2.78;;;2.03;;
76801;SDS011;66403;50.832;10.950;2023-05-10T23:20:19;3.38;;;2.05;;
76801;SDS011;66403;50.832;10.950;2023-05-10T23:25:19;2.35;;;1.88;;
76801;SDS011;66403;50.832;10.950;2023-05-10T23:30:20;4.00;;;2.05;;
76801;SDS011;66403;50.832;10.950;2023-05-10T23:35:20;2.55;;;1.88;;
76801;SDS011;66403;50.832;10.950;2023-05-10T23:40:21;2.50;;;1.60;;
76801;SDS011;66403;50.832;10.950;2023-05-10T23:45:21;2.60;;;1.85;;
76801;SDS011;66403;50.832;10.950;2023-05-10T23:50:22;2.80;;;1.58;;
76801;SDS011;66403;50.832;10.950;2023-05-10T23:55:22;3.03;;;1.88;;
